Time;durP1;ratioP1;P1;durP2;ratioP2;P2;SDS_P1;SDS_P2;PMS_P1;PMS_P2;Temp;Humidity;BMP_temperature;BMP_pressure;BME280_temperature;BME280_humidity;BME280_pressure;Samples;Min_cycle;Max_cycle;Signal;HPM_P1;HPM_P2
2023/02/03 00:06:06;;;;;;;12.80;6.40;;;;;;;-0.12;100.00;98497.31;106274;1256;61259;-79
2023/02/03 00:08:32;;;;;;;15.70;6.50;;;;;;;-0.10;100.00;98501.10;106275;1256;61283;-79
2023/02/03 00:10:59;;;;;;;12.50;6.10;;;;;;;-0.12;100.00;98500.35;106020;1254;61351;-77
2023/02/03 00:13:25;;;;;;;10.50;5.80;;;;;;;-0.15;100.00;98503.51;106265;1254;61369;-79
2023/02/03 00:15:52;;;;;;;11.80;4.60;;;;;;;-0.18;100.00;98501.77;106034;1254;61294;-79
2023/02/03 00:18:18;;;;;;;13.70;6.20;;;;;;;-0.18;100.00;98504.87;106273;1256;62420;-77
2023/02/03 00:20:44;;;;;;;14.40;6.50;;;;;;;-0.17;100.00;98505.17;106295;1256;61326;-79
2023/02/03 00:23:11;;;;;;;13.30;7.00;;;;;;;-0.20;100.00;98511.39;106269;1253;61234;-79
2023/02/03 00:25:38;;;;;;;12.10;6.20;;;;;;;-0.19;100.00;98514.88;106247;1254;61339;-79
2023/02/03 00:28:05;;;;;;;10.20;4.60;;;;;;;-0.17;100.00;98516.75;106100;1259;73721;-78
2023/02/03 00:30:34;;;;;;;12.70;6.40;;;;;;;-0.16;100.00;98520.46;106232;1253;61215;-77
2023/02/03 00:33:01;;;;;;;11.20;5.10;;;;;;;-0.17;100.00;98530.91;106322;1254;61240;-79
2023/02/03 00:35:28;;;;;;;10.40;4.80;;;;;;;-0.17;100.00;98535.73;106224;1252;74841;-77
2023/02/03 00:37:55;;;;;;;12.30;6.10;;;;;;;-0.17;100.00;98538.17;106362;1256;61270;-77
2023/02/03 00:40:22;;;;;;;10.40;6.80;;;;;;;-0.18;100.00;98540.61;106331;1253;62866;-80
2023/02/03 00:42:49;;;;;;;12.30;6.60;;;;;;;-0.17;100.00;98547.59;106326;1253;61238;-77
2023/02/03 00:45:15;;;;;;;9.50;5.40;;;;;;;-0.18;100.00;98548.56;106332;1254;61223;-77
2023/02/03 00:47:42;;;;;;;12.50;5.80;;;;;;;-0.17;100.00;98547.92;106123;1254;61292;-77
2023/02/03 00:50:09;;;;;;;9.40;5.90;;;;;;;-0.19;100.00;98547.73;106272;1252;61340;-79
2023/02/03 00:52:35;;;;;;;12.30;6.40;;;;;;;-0.20;100.00;98543.88;106309;1256;72631;-78
2023/02/03 00:55:03;;;;;;;10.80;6.40;;;;;;;-0.22;100.00;98539.13;106260;1256;61297;-78
2023/02/03 00:57:29;;;;;;;10.50;5.90;;;;;;;-0.23;100.00;98542.86;106294;1254;61245;-79
2023/02/03 00:59:56;;;;;;;10.80;6.10;;;;;;;-0.25;100.00;98545.45;106244;1252;61413;-79
2023/02/03 01:02:23;;;;;;;13.40;6.90;;;;;;;-0.25;100.00;98545.11;106070;1254;71063;-79
2023/02/03 01:04:50;;;;;;;11.80;5.90;;;;;;;-0.25;100.00;98546.90;106297;1257;72368;-79
2023/02/03 01:07:16;;;;;;;15.30;5.70;;;;;;;-0.24;100.00;98550.02;106294;1255;61340;-78
2023/02/03 01:09:43;;;;;;;12.80;6.60;;;;;;;-0.26;100.00;98552.58;106344;1251;61214;-78
2023/02/03 01:12:09;;;;;;;10.00;5.50;;;;;;;-0.25;100.00;98557.95;106314;1251;61310;-78
2023/02/03 01:14:35;;;;;;;12.10;7.60;;;;;;;-0.24;100.00;98560.46;106171;1253;61263;-76
2023/02/03 01:17:02;;;;;;;9.60;6.00;;;;;;;-0.26;100.00;98561.08;106367;1251;61266;-76
2023/02/03 01:19:28;;;;;;;8.80;5.50;;;;;;;-0.27;100.00;98560.64;106310;1256;61256;-76
2023/02/03 01:21:55;;;;;;;11.00;5.80;;;;;;;-0.26;100.00;98563.91;106437;1256;61108;-76
2023/02/03 01:24:21;;;;;;;9.10;4.60;;;;;;;-0.26;100.00;98562.49;106306;1255;61228;-76
2023/02/03 01:26:48;;;;;;;9.40;5.30;;;;;;;-0.26;100.00;98560.45;106255;1257;61185;-79
2023/02/03 01:29:14;;;;;;;8.30;4.50;;;;;;;-0.26;100.00;98559.56;106304;1251;61352;-78
2023/02/03 01:31:41;;;;;;;10.30;6.50;;;;;;;-0.26;100.00;98559.06;106275;1256;61436;-79
2023/02/03 01:34:11;;;;;;;11.50;5.10;;;;;;;-0.26;100.00;98557.63;106297;1251;61351;-76
2023/02/03 01:36:37;;;;;;;12.70;6.10;;;;;;;-0.26;100.00;98561.39;106476;1251;64811;-77
2023/02/03 01:39:04;;;;;;;9.20;6.20;;;;;;;-0.27;100.00;98559.17;106317;1254;61230;-76
2023/02/03 01:41:32;;;;;;;11.50;5.30;;;;;;;-0.28;100.00;98554.90;106255;1256;71718;-77
2023/02/03 01:43:59;;;;;;;9.50;5.20;;;;;;;-0.26;100.00;98553.27;106287;1255;61164;-78
2023/02/03 01:46:43;;;;;;;10.30;5.20;;;;;;;-0.27;100.00;98551.42;105961;1254;61371;-78
2023/02/03 01:49:17;;;;;;;13.60;5.80;;;;;;;-0.28;100.00;98548.14;106232;1253;74564;-78
2023/02/03 01:51:44;;;;;;;13.20;6.30;;;;;;;-0.30;100.00;98545.89;106255;1252;71234;-77
2023/02/03 01:54:18;;;;;;;9.60;5.40;;;;;;;-0.32;100.00;98546.50;106070;1254;62342;-76
2023/02/03 01:56:47;;;;;;;11.90;6.30;;;;;;;-0.33;100.00;98546.05;106292;1256;62334;-76
2023/02/03 01:59:15;;;;;;;9.90;5.20;;;;;;;-0.36;100.00;98546.88;106362;1254;61145;-79
2023/02/03 02:01:41;;;;;;;9.00;5.70;;;;;;;-0.38;100.00;98545.80;106263;1251;74028;-77
2023/02/03 02:04:07;;;;;;;10.50;5.70;;;;;;;-0.39;100.00;98541.87;106311;1256;61220;-78
2023/02/03 02:06:34;;;;;;;9.50;5.80;;;;;;;-0.40;100.00;98538.14;106312;1251;61227;-78
2023/02/03 02:09:00;;;;;;;11.10;6.20;;;;;;;-0.40;100.00;98530.63;106324;1255;61201;-77
2023/02/03 02:11:27;;;;;;;8.80;4.90;;;;;;;-0.41;100.00;98526.14;106334;1251;62339;-79
2023/02/03 02:13:55;;;;;;;8.90;5.20;;;;;;;-0.43;100.00;98530.17;106331;1251;61215;-78
2023/02/03 02:16:35;;;;;;;13.40;6.30;;;;;;;-0.41;100.00;98533.83;106417;1255;62412;-78
2023/02/03 02:19:23;;;;;;;9.30;5.40;;;;;;;-0.41;100.00;98538.38;106297;1256;71417;-78
2023/02/03 02:22:01;;;;;;;6.60;3.80;;;;;;;-0.41;100.00;98534.86;106315;1251;62423;-79
2023/02/03 02:25:01;;;;;;;12.80;6.30;;;;;;;-0.41;100.00;98534.29;106311;1256;61153;-79
2023/02/03 02:27:39;;;;;;;16.80;6.80;;;;;;;-0.42;100.00;98533.16;106031;1259;73448;-76
2023/02/03 02:30:11;;;;;;;10.70;6.40;;;;;;;-0.43;100.00;98531.36;106322;1251;62593;-79
2023/02/03 02:32:56;;;;;;;9.20;5.00;;;;;;;-0.43;100.00;98528.15;106348;1251;73298;-77
2023/02/03 02:35:48;;;;;;;9.70;5.10;;;;;;;-0.43;100.00;98527.30;106356;1256;61330;-78
2023/02/03 02:38:19;;;;;;;8.90;4.70;;;;;;;-0.44;99.98;98524.25;106286;1255;61125;-78
2023/02/03 02:40:51;;;;;;;9.30;4.40;;;;;;;-0.45;100.00;98525.15;106354;1256;74606;-77
2023/02/03 02:43:33;;;;;;;8.30;4.70;;;;;;;-0.48;99.89;98529.36;106321;1251;71573;-77
2023/02/03 02:46:08;;;;;;;8.50;4.80;;;;;;;-0.49;99.98;98528.46;106292;1251;63916;-79
2023/02/03 02:48:37;;;;;;;8.40;3.90;;;;;;;-0.50;100.00;98528.20;106379;1251;61576;-77
2023/02/03 02:51:04;;;;;;;;;;;;;;;-0.50;100.00;98530.96;106469;1255;61160;-78
2023/02/03 02:53:32;;;;;;;6.50;4.30;;;;;;;-0.49;99.95;98529.61;106304;1251;65902;-79
2023/02/03 02:55:59;;;;;;;10.40;5.60;;;;;;;-0.47;100.00;98528.10;106105;1256;69951;-78
2023/02/03 02:58:25;;;;;;;9.40;5.40;;;;;;;-0.48;99.88;98529.94;106167;1254;61357;-79
2023/02/03 03:00:51;;;;;;;6.80;4.20;;;;;;;-0.48;99.99;98527.56;106339;1251;61228;-77
2023/02/03 03:03:20;;;;;;;9.60;5.00;;;;;;;-0.46;99.95;98522.86;106329;1254;61673;-79
2023/02/03 03:05:55;;;;;;;6.80;3.90;;;;;;;-0.46;99.97;98516.95;106259;1254;74536;-77
2023/02/03 03:08:25;;;;;;;10.50;5.40;;;;;;;-0.47;99.74;98505.89;106269;1256;69945;-79
2023/02/03 03:10:52;;;;;;;8.10;4.30;;;;;;;-0.48;99.55;98499.05;105985;1254;72399;-77
2023/02/03 03:13:23;;;;;;;10.20;4.80;;;;;;;-0.49;99.62;98491.36;106253;1256;61330;-77
2023/02/03 03:15:50;;;;;;;6.20;3.70;;;;;;;-0.51;98.78;98480.15;106385;1253;61212;-77
2023/02/03 03:18:20;;;;;;;7.30;4.30;;;;;;;-0.54;99.12;98476.13;106291;1252;67064;-79
2023/02/03 03:20:46;;;;;;;6.50;3.50;;;;;;;-0.56;99.34;98470.80;105915;1253;69901;-77
2023/02/03 03:23:18;;;;;;;6.20;3.70;;;;;;;-0.58;99.45;98470.38;106043;1254;61360;-78
2023/02/03 03:25:48;;;;;;;5.70;3.80;;;;;;;-0.60;98.69;98474.66;106329;1256;61218;-79
2023/02/03 03:28:16;;;;;;;6.70;3.80;;;;;;;-0.63;98.58;98471.73;106350;1256;61231;-77
2023/02/03 03:30:42;;;;;;;5.20;3.50;;;;;;;-0.65;98.15;98470.58;106293;1254;73281;-78
2023/02/03 03:33:09;;;;;;;7.90;4.60;;;;;;;-0.66;98.64;98475.33;106269;1254;61650;-76
2023/02/03 03:35:46;;;;;;;7.70;4.80;;;;;;;-0.67;98.78;98484.17;105975;1259;61314;-77
2023/02/03 03:38:19;;;;;;;8.40;5.80;;;;;;;-0.68;98.84;98493.77;106254;1253;61215;-77
2023/02/03 03:40:51;;;;;;;7.90;4.50;;;;;;;-0.70;98.57;98503.88;106363;1251;61342;-79
2023/02/03 03:43:20;;;;;;;9.30;5.00;;;;;;;-0.73;98.44;98513.13;106387;1251;66499;-79
2023/02/03 03:45:51;;;;;;;7.50;4.70;;;;;;;-0.75;98.61;98521.31;106360;1251;69779;-77
2023/02/03 03:48:31;;;;;;;7.30;5.60;;;;;;;-0.76;98.58;98520.36;106262;1254;72640;-79
2023/02/03 03:51:04;;;;;;;6.80;4.50;;;;;;;-0.76;98.88;98522.66;106368;1251;61256;-76
2023/02/03 03:53:31;;;;;;;9.50;6.10;;;;;;;-0.76;98.91;98519.30;106341;1251;61294;-76
2023/02/03 03:55:57;;;;;;;10.20;7.10;;;;;;;-0.76;99.06;98515.81;106120;1251;72998;-79
2023/02/03 03:58:27;;;;;;;10.80;5.50;;;;;;;-0.76;99.01;98514.58;106261;1257;61220;-79
2023/02/03 04:00:57;;;;;;;7.50;4.60;;;;;;;-0.78;99.01;98509.61;106236;1256;144731;-77
2023/02/03 04:03:27;;;;;;;13.40;7.30;;;;;;;-0.80;99.02;98498.17;106265;1254;62406;-78
2023/02/03 04:05:53;;;;;;;8.10;6.30;;;;;;;-0.83;99.10;98492.56;106008;1253;61221;-77
2023/02/03 04:08:19;;;;;;;9.30;6.10;;;;;;;-0.83;98.96;98485.71;106214;1254;61330;-77
2023/02/03 04:10:46;;;;;;;17.40;7.10;;;;;;;-0.87;99.02;98478.52;106251;1256;59900;-77
2023/02/03 04:13:14;;;;;;;16.70;9.30;;;;;;;-0.91;98.85;98474.70;106246;1254;61422;-79
2023/02/03 04:15:41;;;;;;;11.40;7.30;;;;;;;-0.96;99.00;98470.89;106261;1253;62391;-77
2023/02/03 04:18:07;;;;;;;11.00;6.60;;;;;;;-0.98;98.81;98467.89;106304;1254;61340;-77
2023/02/03 04:20:34;;;;;;;8.80;6.50;;;;;;;-1.02;98.53;98464.80;106105;1254;61464;-79
2023/02/03 04:23:00;;;;;;;13.10;7.20;;;;;;;-1.05;98.42;98463.83;106289;1256;61186;-76
2023/02/03 04:25:26;;;;;;;11.90;6.10;;;;;;;-1.08;98.56;98460.59;106212;1254;61260;-77
2023/02/03 04:27:54;;;;;;;11.00;7.00;;;;;;;-1.09;98.55;98457.80;106252;1254;61257;-76
2023/02/03 04:30:20;;;;;;;11.50;7.20;;;;;;;-1.12;98.64;98456.50;106228;1254;61225;-77
2023/02/03 04:32:46;;;;;;;18.90;11.50;;;;;;;-1.15;98.58;98460.57;106301;1256;61374;-79
2023/02/03 04:35:13;;;;;;;13.10;8.40;;;;;;;-1.16;98.84;98464.22;106251;1254;62393;-76
2023/02/03 04:37:39;;;;;;;15.90;9.20;;;;;;;-1.16;98.90;98469.77;106287;1256;61080;-77
2023/02/03 04:40:07;;;;;;;12.80;8.40;;;;;;;-1.17;98.79;98468.46;106252;1254;61596;-77
2023/02/03 04:42:36;;;;;;;14.40;7.30;;;;;;;-1.19;98.81;98469.44;106490;1254;61331;-76
2023/02/03 04:45:03;;;;;;;22.40;11.20;;;;;;;-1.21;98.94;98458.84;106312;1256;73831;-77
2023/02/03 04:47:30;;;;;;;15.50;9.30;;;;;;;-1.21;98.88;98456.77;106323;1254;62437;-79
2023/02/03 04:49:56;;;;;;;14.60;8.40;;;;;;;-1.21;99.12;98452.91;106266;1256;61262;-79
2023/02/03 04:52:22;;;;;;;12.00;7.40;;;;;;;-1.22;98.94;98445.71;106253;1256;61338;-79
2023/02/03 04:54:49;;;;;;;15.40;6.70;;;;;;;-1.25;98.98;98442.05;106315;1256;61240;-79
2023/02/03 04:57:15;;;;;;;10.60;5.90;;;;;;;-1.26;99.22;98444.09;106375;1254;61426;-79
2023/02/03 04:59:41;;;;;;;11.40;5.90;;;;;;;-1.27;99.17;98440.50;106264;1255;62338;-77
2023/02/03 05:02:08;;;;;;;16.10;7.90;;;;;;;-1.27;99.21;98432.35;106288;1256;61477;-77
2023/02/03 05:04:34;;;;;;;13.00;7.20;;;;;;;-1.27;99.35;98433.46;106284;1254;61961;-79
2023/02/03 05:07:01;;;;;;;14.90;6.10;;;;;;;-1.28;99.39;98440.10;106376;1253;61409;-76
2023/02/03 05:09:27;;;;;;;15.10;7.10;;;;;;;-1.30;99.42;98440.30;106289;1256;61369;-78
2023/02/03 05:11:53;;;;;;;16.50;7.90;;;;;;;-1.31;99.19;98439.55;106278;1254;61116;-79
2023/02/03 05:14:20;;;;;;;13.10;7.20;;;;;;;-1.31;99.36;98433.58;106285;1254;62200;-78
2023/02/03 05:16:46;;;;;;;17.00;6.20;;;;;;;-1.30;99.36;98433.98;106379;1254;61364;-79
2023/02/03 05:19:13;;;;;;;14.00;8.30;;;;;;;-1.29;99.46;98430.10;106325;1257;61340;-80
2023/02/03 05:21:39;;;;;;;13.60;8.50;;;;;;;-1.28;99.38;98428.93;106293;1256;61243;-78
2023/02/03 05:24:06;;;;;;;15.90;8.10;;;;;;;-1.27;99.64;98423.52;106284;1256;61339;-77
2023/02/03 05:26:34;;;;;;;11.50;5.40;;;;;;;-1.25;99.52;98420.58;106338;1256;61211;-77
2023/02/03 05:29:00;;;;;;;15.20;7.80;;;;;;;-1.27;99.31;98416.16;106297;1256;61231;-77
2023/02/03 05:31:27;;;;;;;15.40;8.60;;;;;;;-1.27;99.65;98411.05;106291;1256;61218;-78
2023/02/03 05:33:53;;;;;;;14.10;8.10;;;;;;;-1.27;99.55;98409.68;106073;1254;61246;-79
2023/02/03 05:36:20;;;;;;;14.50;7.30;;;;;;;-1.29;99.64;98402.25;106252;1254;61341;-78
2023/02/03 05:38:46;;;;;;;12.40;6.50;;;;;;;-1.28;99.61;98396.49;106283;1256;62351;-77
2023/02/03 05:43:58;;;;;;;27.30;11.80;;;;;;;-1.30;99.72;98391.94;106295;1254;61314;-77
2023/02/03 05:46:24;;;;;;;13.20;7.00;;;;;;;-1.30;99.71;98388.75;106296;1254;61801;-78
2023/02/03 05:48:51;;;;;;;10.80;6.90;;;;;;;-1.32;99.62;98376.47;106037;1257;61253;-78
2023/02/03 05:51:17;;;;;;;13.20;7.70;;;;;;;-1.34;99.67;98376.34;106239;1255;62363;-77
2023/02/03 05:53:43;;;;;;;10.80;6.70;;;;;;;-1.32;99.72;98373.07;106226;1254;61336;-79
2023/02/03 05:56:10;;;;;;;10.10;5.70;;;;;;;-1.31;99.63;98367.27;106255;1254;61298;-79
2023/02/03 05:58:36;;;;;;;12.50;8.00;;;;;;;-1.32;99.55;98362.40;106285;1256;61261;-79
2023/02/03 06:01:03;;;;;;;15.00;8.30;;;;;;;-1.35;99.55;98362.84;106272;1256;61733;-77
2023/02/03 06:03:29;;;;;;;20.60;8.70;;;;;;;-1.37;99.62;98360.39;106204;1256;61439;-80
2023/02/03 06:05:57;;;;;;;22.80;11.10;;;;;;;-1.38;99.54;98359.48;106189;1257;61276;-76
2023/02/03 06:08:27;;;;;;;32.20;13.10;;;;;;;-1.38;99.50;98352.95;106220;1254;61129;-78
2023/02/03 06:10:58;;;;;;;21.70;10.50;;;;;;;-1.38;99.56;98348.48;106167;1254;73421;-78
2023/02/03 06:13:25;;;;;;;20.30;11.30;;;;;;;-1.37;99.69;98344.65;106022;1253;71151;-78
2023/02/03 06:15:51;;;;;;;36.20;14.80;;;;;;;-1.35;99.83;98346.52;106987;1254;72359;-76
2023/02/03 06:18:18;;;;;;;59.50;23.50;;;;;;;-1.33;99.50;98342.59;106397;1254;61317;-78
2023/02/03 06:20:45;;;;;;;48.30;18.10;;;;;;;-1.33;99.58;98344.35;106000;1252;61340;-75
2023/02/03 06:23:11;;;;;;;53.40;22.90;;;;;;;-1.34;99.61;98340.05;106433;1251;61336;-77
2023/02/03 06:25:38;;;;;;;65.60;23.70;;;;;;;-1.35;99.35;98339.98;106282;1257;61209;-78
2023/02/03 06:28:04;;;;;;;61.50;22.50;;;;;;;-1.35;99.43;98335.35;106419;1251;61352;-78
2023/02/03 06:30:30;;;;;;;71.60;26.60;;;;;;;-1.33;99.40;98326.12;106356;1256;61342;-77
2023/02/03 06:32:57;;;;;;;58.60;20.70;;;;;;;-1.29;99.50;98316.88;106288;1252;61340;-75
2023/02/03 06:35:23;;;;;;;58.10;22.50;;;;;;;-1.26;99.21;98313.15;106435;1253;61853;-76
2023/02/03 06:37:49;;;;;;;36.10;15.50;;;;;;;-1.26;99.03;98308.89;106338;1257;62316;-78
2023/02/03 06:40:16;;;;;;;41.70;12.80;;;;;;;-1.25;98.25;98307.79;106249;1254;61103;-76
2023/02/03 06:42:46;;;;;;;27.10;12.30;;;;;;;-1.22;98.59;98305.17;106155;1256;61337;-78
2023/02/03 06:45:13;;;;;;;21.70;8.70;;;;;;;-1.23;98.35;98307.45;106272;1251;61144;-76
2023/02/03 06:47:40;;;;;;;16.60;8.70;;;;;;;-1.21;97.97;98306.77;106298;1257;73460;-76
2023/02/03 06:50:07;;;;;;;24.00;12.90;;;;;;;-1.21;97.81;98302.36;106303;1255;62406;-78
2023/02/03 06:52:34;;;;;;;89.90;36.90;;;;;;;-1.19;96.89;98296.98;106288;1256;62872;-76
2023/02/03 06:55:01;;;;;;;29.90;16.50;;;;;;;-1.15;96.71;98297.67;106338;1251;61327;-78
2023/02/03 06:57:27;;;;;;;13.30;9.20;;;;;;;-1.14;96.01;98296.86;106288;1251;61250;-78
2023/02/03 06:59:53;;;;;;;21.00;14.20;;;;;;;-1.14;95.37;98295.97;106313;1257;61332;-79
2023/02/03 07:02:20;;;;;;;30.60;17.90;;;;;;;-1.14;95.49;98295.89;106264;1251;62111;-79
2023/02/03 07:04:47;;;;;;;21.80;14.50;;;;;;;-1.13;95.60;98297.40;106235;1256;72637;-76
2023/02/03 07:07:13;;;;;;;25.60;14.20;;;;;;;-1.09;95.82;98298.01;106250;1256;61330;-78
2023/02/03 07:09:40;;;;;;;42.00;19.50;;;;;;;-1.05;95.75;98294.81;106333;1253;61215;-76
2023/02/03 07:12:07;;;;;;;44.50;20.60;;;;;;;-1.02;95.85;98294.75;106768;1254;74509;-76
2023/02/03 07:14:34;;;;;;;39.30;18.30;;;;;;;-0.98;95.71;98288.38;107230;1254;71458;-78
2023/02/03 07:17:01;;;;;;;67.60;43.70;;;;;;;-0.97;95.68;98284.08;106297;1254;71474;-78
2023/02/03 07:19:28;;;;;;;44.30;33.30;;;;;;;-0.95;95.74;98277.83;106320;1254;61323;-76
2023/02/03 07:21:54;;;;;;;24.60;17.20;;;;;;;-0.90;95.72;98281.98;107834;1253;61330;-78
2023/02/03 07:24:21;;;;;;;17.10;11.80;;;;;;;-0.89;94.99;98282.20;107839;1254;61378;-76
2023/02/03 07:26:47;;;;;;;16.70;12.10;;;;;;;-0.85;95.27;98277.29;106607;1254;61330;-76
2023/02/03 07:29:14;;;;;;;25.00;9.00;;;;;;;-0.82;95.75;98275.54;106759;1254;61345;-79
2023/02/03 07:31:40;;;;;;;18.00;9.20;;;;;;;-0.77;95.39;98269.65;106989;1254;61320;-80
2023/02/03 07:34:07;;;;;;;15.20;11.60;;;;;;;-0.72;95.37;98265.12;108381;1252;61208;-79
2023/02/03 07:36:33;;;;;;;14.70;9.00;;;;;;;-0.70;95.15;98264.50;107898;1254;61314;-76
2023/02/03 07:39:00;;;;;;;15.60;9.20;;;;;;;-0.68;95.30;98257.77;109387;1251;59034;-77
2023/02/03 07:41:26;;;;;;;20.20;10.90;;;;;;;-0.61;94.97;98257.58;109346;1254;59283;-79
2023/02/03 07:43:53;;;;;;;27.00;15.50;;;;;;;-0.63;94.63;98253.92;109239;1252;59171;-79
2023/02/03 07:46:19;;;;;;;28.70;15.90;;;;;;;-0.60;94.91;98247.90;109174;1255;60142;-77
2023/02/03 07:48:46;;;;;;;15.00;9.20;;;;;;;-0.56;94.62;98240.42;107970;1254;61260;-76
2023/02/03 07:51:12;;;;;;;18.00;10.70;;;;;;;-0.52;94.14;98235.14;107594;1253;61193;-79
2023/02/03 07:53:39;;;;;;;20.40;10.90;;;;;;;-0.49;93.14;98223.52;106976;1254;62149;-76
2023/02/03 07:56:05;;;;;;;28.30;16.40;;;;;;;-0.51;92.56;98221.21;107370;1254;61158;-78
2023/02/03 07:58:32;;;;;;;28.90;15.70;;;;;;;-0.52;91.28;98227.08;106670;1254;63325;-78
2023/02/03 08:00:58;;;;;;;32.60;16.20;;;;;;;-0.57;91.58;98220.36;107315;1254;61346;-79
2023/02/03 08:03:24;;;;;;;32.40;17.10;;;;;;;-0.54;90.66;98217.31;107551;1251;61196;-78
2023/02/03 08:05:52;;;;;;;64.00;32.40;;;;;;;-0.57;90.55;98212.23;107234;1254;61227;-79
2023/02/03 08:08:18;;;;;;;64.40;30.50;;;;;;;-0.56;91.36;98211.46;106574;1256;61221;-76
2023/02/03 08:10:45;;;;;;;55.90;34.20;;;;;;;-0.49;91.14;98208.15;106769;1253;61148;-76
2023/02/03 08:13:11;;;;;;;71.00;32.30;;;;;;;-0.45;90.43;98206.17;108883;1252;59863;-77
2023/02/03 08:15:38;;;;;;;35.30;16.60;;;;;;;-0.43;89.84;98204.14;109145;1256;59217;-79
2023/02/03 08:18:05;;;;;;;97.20;35.10;;;;;;;-0.36;90.50;98203.00;109208;1256;59423;-79
2023/02/03 08:20:31;;;;;;;25.30;11.70;;;;;;;-0.28;90.44;98201.55;109157;1256;60195;-77
2023/02/03 08:22:58;;;;;;;51.40;21.20;;;;;;;-0.24;90.19;98200.77;109177;1252;59275;-77
2023/02/03 08:25:24;;;;;;;274.70;95.30;;;;;;;-0.16;90.59;98194.09;107934;1254;59579;-76
2023/02/03 08:27:52;;;;;;;69.70;31.80;;;;;;;-0.07;90.96;98186.20;106884;1254;61322;-76
2023/02/03 08:30:18;;;;;;;21.40;11.00;;;;;;;0.03;91.03;98179.95;107103;1256;72710;-79
2023/02/03 08:32:44;;;;;;;18.90;9.00;;;;;;;0.08;88.55;98168.83;107640;1253;61231;-79
2023/02/03 08:35:11;;;;;;;18.40;9.00;;;;;;;0.16;89.15;98168.19;108950;1254;60566;-79
2023/02/03 08:37:37;;;;;;;35.20;16.60;;;;;;;0.26;89.67;98167.23;107582;1256;61234;-78
2023/02/03 08:40:05;;;;;;;23.90;11.80;;;;;;;0.34;88.68;98161.99;106548;1256;61385;-79
2023/02/03 08:42:31;;;;;;;14.80;9.50;;;;;;;0.43;89.68;98160.73;107336;1256;72562;-76
2023/02/03 08:44:58;;;;;;;21.10;9.70;;;;;;;0.50;89.95;98158.15;106732;1255;60841;-76
2023/02/03 08:47:24;;;;;;;36.50;21.90;;;;;;;0.52;88.26;98146.49;106325;1265;61199;-78
2023/02/03 08:49:51;;;;;;;28.10;15.10;;;;;;;0.55;89.13;98149.77;106328;1255;74270;-76
2023/02/03 08:52:17;;;;;;;28.00;14.00;;;;;;;0.49;84.82;98148.07;107397;1259;72482;-76
2023/02/03 08:54:44;;;;;;;23.80;11.00;;;;;;;0.54;87.27;98142.39;107469;1255;71424;-79
2023/02/03 08:57:11;;;;;;;17.20;7.40;;;;;;;0.59;86.42;98134.90;106363;1256;61218;-79
2023/02/03 08:59:39;;;;;;;18.00;8.80;;;;;;;0.56;86.16;98132.61;106374;1254;61109;-76
2023/02/03 09:02:06;;;;;;;12.40;5.70;;;;;;;0.56;85.47;98131.54;106953;1257;74699;-76
2023/02/03 09:04:33;;;;;;;14.20;6.00;;;;;;;0.56;84.27;98130.64;106401;1258;69989;-76
2023/02/03 09:07:01;;;;;;;8.60;5.00;;;;;;;0.47;82.56;98120.96;107042;1256;59328;-76
2023/02/03 09:09:27;;;;;;;12.30;5.70;;;;;;;0.50;83.71;98114.14;106451;1257;61112;-77
2023/02/03 09:11:59;;;;;;;9.40;4.20;;;;;;;0.57;83.19;98111.55;107516;1254;61359;-79
2023/02/03 09:14:26;;;;;;;7.30;3.60;;;;;;;0.59;81.44;98110.77;108525;1253;74588;-79
2023/02/03 09:16:52;;;;;;;14.60;8.40;;;;;;;0.64;81.92;98106.52;106665;1254;71016;-79
2023/02/03 09:19:19;;;;;;;6.40;4.00;;;;;;;0.73;82.72;98111.75;106398;1257;61323;-79
2023/02/03 09:21:47;;;;;;;6.10;3.30;;;;;;;0.89;82.66;98111.95;107021;1257;61361;-79
2023/02/03 09:24:15;;;;;;;9.40;4.90;;;;;;;0.97;80.92;98106.06;107567;1253;61243;-76
2023/02/03 09:26:41;;;;;;;6.10;3.50;;;;;;;1.04;80.75;98102.45;106737;1256;75880;-79
2023/02/03 09:29:08;;;;;;;12.20;5.30;;;;;;;1.05;81.28;98101.79;106401;1255;61333;-79
2023/02/03 09:31:34;;;;;;;9.60;4.10;;;;;;;1.10;82.09;98099.72;106654;1254;61234;-76
2023/02/03 09:34:01;;;;;;;7.40;3.50;;;;;;;1.06;81.60;98095.04;106634;1251;61250;-76
2023/02/03 09:36:27;;;;;;;7.10;3.90;;;;;;;1.07;81.98;98093.26;106524;1256;61222;-79
2023/02/03 09:38:55;;;;;;;13.90;6.20;;;;;;;1.04;82.54;98086.23;106337;1256;62256;-78
2023/02/03 09:41:26;;;;;;;11.10;5.70;;;;;;;1.02;83.33;98082.02;107024;1251;70591;-77
2023/02/03 09:44:10;;;;;;;17.30;7.70;;;;;;;1.05;84.12;98076.45;107512;1255;72588;-79
2023/02/03 09:46:39;;;;;;;7.30;3.70;;;;;;;1.10;84.41;98065.11;106884;1252;61268;-79
2023/02/03 09:49:25;;;;;;;;;;;;;;;1.08;84.73;98063.52;106392;1253;61307;-76
2023/02/03 09:51:58;;;;;;;7.60;4.10;;;;;;;1.08;85.33;98060.19;108412;1252;74665;-77
2023/02/03 09:54:55;;;;;;;9.20;4.00;;;;;;;1.12;85.83;98047.02;107745;1251;71012;-79
2023/02/03 09:57:23;;;;;;;11.60;4.80;;;;;;;1.17;86.66;98028.17;107167;1254;71321;-79
2023/02/03 09:59:50;;;;;;;14.10;5.80;;;;;;;1.25;86.88;98017.54;106515;1257;61323;-76
2023/02/03 10:02:48;;;;;;;21.10;12.30;;;;;;;1.32;86.98;98003.81;107190;1251;61116;-79
2023/02/03 10:05:29;;;;;;;15.70;10.40;;;;;;;1.39;87.45;97992.56;107788;1251;74667;-77
2023/02/03 10:08:01;;;;;;;27.80;12.80;;;;;;;1.47;87.25;97985.25;106366;1251;69838;-79
2023/02/03 10:10:33;;;;;;;132.50;51.00;;;;;;;1.55;87.60;97975.84;106785;1251;70622;-77
2023/02/03 10:13:26;;;;;;;51.40;21.40;;;;;;;1.69;88.12;97962.81;107224;1252;61186;-79
2023/02/03 10:16:03;;;;;;;32.10;15.50;;;;;;;1.79;87.59;97947.13;107955;1254;61129;-77
2023/02/03 10:18:55;;;;;;;37.40;17.30;;;;;;;1.87;87.48;97940.91;106703;1251;73154;-77
2023/02/03 10:21:44;;;;;;;21.40;10.00;;;;;;;1.83;87.22;97926.13;106561;1256;70256;-79
2023/02/03 10:24:21;;;;;;;14.80;7.30;;;;;;;1.80;87.35;97914.70;107154;1254;73041;-77
2023/02/03 10:26:47;;;;;;;22.00;11.90;;;;;;;1.72;87.12;97904.08;106496;1257;61547;-79
2023/02/03 10:29:31;;;;;;;13.10;10.20;;;;;;;1.62;87.43;97896.16;107149;1253;59763;-77
2023/02/03 10:31:59;;;;;;;43.20;23.00;;;;;;;1.52;88.16;97894.02;106957;1251;74577;-79
2023/02/03 10:34:25;;;;;;;33.60;17.90;;;;;;;1.45;88.88;97878.20;107367;1256;69840;-77
2023/02/03 10:37:04;;;;;;;15.00;8.20;;;;;;;1.39;89.75;97870.67;106599;1256;71457;-79
2023/02/03 10:39:42;;;;;;;16.40;10.20;;;;;;;1.36;89.94;97860.73;106584;1256;61151;-76
2023/02/03 10:42:08;;;;;;;26.50;19.10;;;;;;;1.34;90.85;97850.31;107665;1254;59922;-76
2023/02/03 10:44:56;;;;;;;35.20;26.90;;;;;;;1.33;90.76;97838.16;107696;1251;61227;-77
2023/02/03 10:47:36;;;;;;;26.70;15.70;;;;;;;1.29;91.50;97830.44;106511;1254;71582;-80
2023/02/03 10:50:06;;;;;;;30.70;15.60;;;;;;;1.29;91.83;97829.36;106912;1253;71483;-79
2023/02/03 10:52:34;;;;;;;36.00;18.40;;;;;;;1.32;92.04;97824.10;107614;1251;59164;-79
2023/02/03 10:55:05;;;;;;;34.30;19.40;;;;;;;1.31;92.76;97809.30;107668;1251;59433;-79
2023/02/03 10:57:34;;;;;;;42.70;24.10;;;;;;;1.29;92.94;97804.07;107322;1252;74127;-79
2023/02/03 11:00:05;;;;;;;;;;;;;;;1.25;93.85;97792.66;106210;1251;71001;-77
2023/02/03 11:02:31;;;;;;;19.00;10.10;;;;;;;1.18;96.17;97787.61;107374;1251;72588;-77
2023/02/03 11:05:19;;;;;;;31.00;16.50;;;;;;;1.22;94.87;97777.63;107933;1251;61148;-77
2023/02/03 11:07:45;;;;;;;27.60;15.10;;;;;;;1.17;95.33;97770.75;106810;1254;61508;-78
2023/02/03 11:10:39;;;;;;;25.10;14.30;;;;;;;1.17;95.70;97763.65;106664;1255;74464;-76
2023/02/03 11:13:22;;;;;;;20.30;11.30;;;;;;;1.15;96.20;97759.73;107269;1252;71322;-76
2023/02/03 11:16:02;;;;;;;17.10;9.30;;;;;;;1.10;98.32;97744.22;107160;1256;71124;-79
2023/02/03 11:18:51;;;;;;;16.70;9.30;;;;;;;1.08;99.63;97734.06;106784;1251;61246;-77
2023/02/03 11:21:39;;;;;;;11.60;7.30;;;;;;;1.10;99.04;97724.36;107507;1254;61284;-76
2023/02/03 11:24:19;;;;;;;119.80;51.80;;;;;;;1.03;99.98;97712.38;107722;1251;73123;-77
2023/02/03 11:27:03;;;;;;;44.50;21.50;;;;;;;0.95;99.81;97705.30;107169;1254;71513;-79
2023/02/03 11:29:31;;;;;;;114.60;51.10;;;;;;;0.91;100.00;97698.05;107177;1251;64061;-77
2023/02/03 11:32:01;;;;;;;23.50;13.90;;;;;;;0.91;100.00;97698.00;107381;1251;61116;-77
2023/02/03 11:34:33;;;;;;;30.40;15.80;;;;;;;0.89;99.99;97690.53;107971;1253;61224;-79